OMSJ/SHJ METAR and TAF weather

Enter ICAO airport designator
Station Type Date Time Source
OMSJ METAR 2019/11/21 04:00 UTC NOAA

OMSJ 210400Z 19006KT 6000 SCT040 21/19 Q1014 BECMG 29012KT


Station Type Date Time Source
OMSJ Decoded METAR 2019/11/21 04:00 UTC NOAA

Sharjah International Airport, United Arab Emirates (OMSJ) 25-20N 055-31E 33M
Nov 20, 2019 - 11:00 PM EST / 2019.11.21 0400 UTC
Wind: from the S (190 degrees) at 7 MPH (6 KT):0
Visibility: 3 mile(s):0
Sky conditions: partly cloudy
Temperature: 69 F (21 C)
Dew Point: 66 F (19 C)
Relative Humidity: 88%
Pressure (altimeter): 29.94 in. Hg (1014 hPa)
ob: OMSJ 210400Z 19006KT 6000 SCT040 21/19 Q1014 BECMG 29012KT
cycle: 4

Station Type Date Time Source
OMSJ TAF 2019/11/20 18:04 UTC NOAA

TAF OMSJ 201701Z 2018/2200 18007KT 8000 FEW040 PROB30
TEMPO 2018/2021 VRB15G25KT 4500 SHRA SCT035TCU PROB40 2021/2103 29015KT
BECMG 2103/2105 29015KT
BECMG 2116/2118 20005KT

Example: see airport list